createdAt,value
2023-03-06T00:02:42.031Z,76.92
2023-03-06T00:05:44.878Z,76.31
2023-03-06T00:08:47.529Z,77.05
2023-03-06T00:11:50.111Z,76.96
2023-03-06T00:14:52.681Z,76.92
2023-03-06T00:17:56.538Z,76.98
2023-03-06T00:20:59.319Z,76.09
2023-03-06T00:24:01.929Z,75.97
2023-03-06T00:27:04.756Z,75.23
2023-03-06T00:30:14.237Z,75.50
2023-03-06T00:33:17.993Z,75.64
2023-03-06T00:36:20.756Z,76.04
2023-03-06T00:39:23.683Z,76.09
2023-03-06T00:42:26.146Z,75.68
2023-03-06T00:45:28.847Z,75.15
2023-03-06T00:48:33.119Z,75.56
2023-03-06T00:51:35.712Z,75.57
2023-03-06T00:54:38.349Z,74.97
2023-03-06T00:57:41.003Z,74.80
2023-03-06T01:00:43.851Z,74.70
2023-03-06T01:03:46.426Z,75.51
2023-03-06T01:06:49.491Z,74.36
2023-03-06T01:09:52.036Z,75.38
2023-03-06T01:12:55.166Z,75.54
2023-03-06T01:16:06.965Z,75.73
2023-03-06T01:19:09.813Z,75.72
2023-03-06T01:22:12.408Z,76.57
2023-03-06T01:25:15.114Z,76.89
2023-03-06T01:28:18.487Z,76.79
2023-03-06T01:31:21.038Z,77.40
2023-03-06T01:34:23.682Z,77.44
2023-03-06T01:37:26.202Z,77.48
2023-03-06T01:40:31.899Z,77.39
2023-03-06T01:43:39.564Z,77.94
2023-03-06T01:46:43.904Z,78.51
2023-03-06T01:49:46.435Z,79.17
2023-03-06T01:52:52.610Z,78.44
2023-03-06T01:55:55.423Z,79.20
2023-03-06T01:58:58.519Z,78.45
2023-03-06T02:02:02.971Z,78.90
2023-03-06T02:05:06.954Z,79.45
2023-03-06T02:08:14.987Z,79.56
2023-03-06T02:11:20.627Z,80.12
2023-03-06T02:14:23.551Z,80.30
2023-03-06T02:17:27.097Z,80.19
2023-03-06T02:20:38.249Z,79.87
2023-03-06T02:23:48.147Z,79.49
2023-03-06T02:26:51.468Z,79.89
2023-03-06T02:29:55.001Z,80.70
2023-03-06T02:32:58.394Z,80.51
2023-03-06T02:36:04.106Z,81.01
2023-03-06T02:39:06.956Z,80.51
2023-03-06T02:42:10.628Z,80.33
2023-03-06T02:45:14.318Z,81.14
2023-03-06T02:48:18.579Z,81.31
2023-03-06T02:51:21.872Z,81.46
2023-03-06T02:54:25.339Z,81.51
2023-03-06T02:57:27.875Z,81.87
2023-03-06T03:00:32.885Z,80.48
2023-03-06T03:03:38.206Z,81.10
2023-03-06T03:06:41.058Z,81.66
2023-03-06T03:09:43.724Z,81.33
2023-03-06T03:12:46.647Z,81.16
2023-03-06T03:16:11.389Z,80.90
2023-03-06T03:19:14.446Z,81.03
2023-03-06T03:22:19.063Z,81.14
2023-03-06T03:25:25.278Z,81.35
2023-03-06T03:28:30.709Z,81.01
2023-03-06T03:31:33.447Z,81.09
2023-03-06T03:34:37.537Z,81.11
2023-03-06T03:37:41.714Z,80.82
2023-03-06T03:40:44.964Z,80.22
2023-03-06T03:43:47.797Z,80.63
2023-03-06T03:46:50.933Z,81.46
2023-03-06T03:49:57.110Z,81.67
2023-03-06T03:53:00.657Z,81.24
2023-03-06T03:56:04.006Z,81.41
2023-03-06T03:59:08.994Z,81.35
2023-03-06T04:02:18.431Z,81.24
2023-03-06T04:05:28.798Z,81.06
2023-03-06T04:08:32.012Z,80.20
2023-03-06T04:11:34.556Z,80.10
2023-03-06T04:14:37.202Z,79.58
2023-03-06T04:17:40.428Z,80.79
2023-03-06T04:20:48.217Z,80.82
2023-03-06T04:23:50.914Z,80.56
2023-03-06T04:26:53.617Z,80.59
2023-03-06T04:29:56.586Z,80.65
2023-03-06T04:32:59.565Z,81.04
2023-03-06T04:36:02.833Z,80.33
2023-03-06T04:39:07.774Z,80.53
2023-03-06T04:42:10.867Z,79.64
2023-03-06T04:45:13.925Z,80.73
2023-03-06T04:48:18.374Z,80.53
2023-03-06T04:51:21.239Z,79.77
2023-03-06T04:54:23.734Z,79.82
2023-03-06T04:57:26.352Z,80.13
2023-03-06T05:00:32.131Z,80.88
2023-03-06T05:03:34.858Z,79.67
2023-03-06T05:06:37.403Z,79.48
2023-03-06T05:09:40.001Z,78.45
2023-03-06T05:12:42.896Z,79.01
2023-03-06T05:15:45.439Z,78.19
2023-03-06T05:18:50.509Z,77.86
2023-03-06T05:21:53.276Z,78.07
2023-03-06T05:24:55.899Z,78.62
2023-03-06T05:27:58.575Z,78.34
2023-03-06T05:31:03.404Z,79.96
2023-03-06T05:34:06.049Z,79.66
2023-03-06T05:37:08.971Z,79.20
2023-03-06T05:40:12.229Z,79.58
2023-03-06T05:43:14.838Z,79.28
2023-03-06T05:46:17.421Z,78.94
2023-03-06T05:49:20.024Z,79.33
2023-03-06T05:52:22.719Z,80.00
2023-03-06T05:55:25.466Z,79.09
2023-03-06T05:58:28.943Z,79.21
2023-03-06T06:01:31.645Z,79.04
2023-03-06T06:04:34.354Z,77.94
2023-03-06T06:07:37.002Z,79.23
2023-03-06T06:10:43.943Z,77.78
2023-03-06T06:13:48.564Z,77.64
2023-03-06T06:16:51.216Z,77.75
2023-03-06T06:19:53.812Z,77.31
2023-03-06T06:22:56.412Z,77.57
2023-03-06T06:26:04.133Z,76.23
2023-03-06T06:29:06.819Z,74.77
2023-03-06T06:32:09.449Z,74.03
2023-03-06T06:35:12.081Z,74.03
2023-03-06T06:38:14.690Z,73.21
2023-03-06T06:44:39.897Z,72.08
2023-03-06T06:47:43.311Z,72.29
2023-03-06T06:50:46.249Z,71.61
2023-03-06T06:53:52.125Z,71.04
2023-03-06T06:56:54.888Z,72.13
2023-03-06T06:59:57.467Z,71.70
2023-03-06T07:03:00.147Z,70.10
2023-03-06T07:06:03.031Z,70.36
2023-03-06T07:09:05.888Z,70.64
2023-03-06T07:12:08.814Z,69.90
2023-03-06T07:15:15.940Z,69.44
2023-03-06T07:18:21.180Z,68.53
2023-03-06T07:21:23.804Z,68.59
2023-03-06T07:24:26.829Z,67.91
2023-03-06T07:27:29.488Z,68.38
2023-03-06T07:30:32.130Z,66.72
2023-03-06T07:33:34.729Z,68.61
2023-03-06T07:36:37.243Z,67.47
2023-03-06T07:39:39.855Z,66.71
2023-03-06T07:42:42.471Z,66.29
2023-03-06T07:45:56.431Z,66.33
2023-03-06T07:48:59.181Z,67.32
2023-03-06T07:52:04.865Z,65.74
2023-03-06T07:55:08.203Z,65.63
2023-03-06T07:58:11.204Z,65.64
2023-03-06T08:01:17.310Z,64.38
2023-03-06T08:04:19.938Z,63.39
2023-03-06T08:07:23.396Z,63.82
2023-03-06T08:10:26.132Z,64.37
2023-03-06T08:13:28.812Z,64.18
2023-03-06T08:16:31.682Z,63.43
2023-03-06T08:19:34.478Z,63.53
2023-03-06T08:22:37.294Z,63.63
2023-03-06T08:25:39.977Z,62.76
2023-03-06T08:28:43.276Z,61.86
2023-03-06T08:31:46.984Z,62.24
2023-03-06T08:34:49.724Z,62.21
2023-03-06T08:37:52.324Z,61.57
2023-03-06T08:40:54.979Z,63.02
2023-03-06T08:43:57.933Z,62.42
2023-03-06T08:47:00.610Z,61.12
2023-03-06T08:50:04.011Z,62.01
2023-03-06T08:53:06.629Z,60.86
2023-03-06T08:56:19.402Z,60.41
2023-03-06T08:59:22.470Z,61.75
2023-03-06T09:02:25.395Z,60.32
2023-03-06T09:05:28.227Z,60.63
2023-03-06T09:08:30.889Z,59.17
2023-03-06T09:11:34.487Z,58.40
2023-03-06T09:14:37.453Z,58.09
2023-03-06T09:17:40.567Z,57.45
2023-03-06T09:20:43.241Z,58.35
2023-03-06T09:23:45.911Z,56.09
2023-03-06T09:26:51.440Z,56.73
2023-03-06T09:29:57.957Z,56.92
2023-03-06T09:33:01.272Z,55.70
2023-03-06T09:36:04.882Z,56.89
2023-03-06T09:39:07.861Z,57.46
2023-03-06T09:42:20.348Z,56.81
2023-03-06T09:45:22.973Z,56.23
2023-03-06T09:48:39.293Z,55.46
2023-03-06T09:52:23.613Z,54.86
2023-03-06T09:55:29.133Z,54.15
2023-03-06T09:59:04.638Z,53.31
2023-03-06T10:02:24.559Z,52.63
2023-03-06T10:05:33.065Z,51.50
2023-03-06T10:08:41.534Z,51.27
2023-03-06T10:11:53.073Z,52.41
2023-03-06T10:15:03.256Z,53.43
2023-03-06T10:18:05.894Z,51.99
2023-03-06T10:21:21.486Z,51.33
2023-03-06T10:24:30.571Z,50.47
2023-03-06T10:27:58.018Z,51.43
2023-03-06T10:31:15.502Z,51.12
2023-03-06T10:34:28.539Z,50.91
2023-03-06T10:37:32.577Z,51.39
2023-03-06T10:40:42.224Z,51.14
2023-03-06T10:44:05.579Z,51.81
2023-03-06T10:47:27.728Z,51.75
2023-03-06T10:50:31.534Z,51.45
2023-03-06T10:53:34.513Z,51.98
2023-03-06T10:56:39.948Z,51.14
2023-03-06T11:00:00.402Z,52.90
2023-03-06T11:03:16.403Z,51.28
2023-03-06T11:06:34.768Z,50.24
2023-03-06T11:09:37.492Z,49.54
2023-03-06T11:12:41.542Z,51.02
2023-03-06T11:16:01.979Z,50.78
2023-03-06T11:19:17.781Z,51.77
2023-03-06T11:22:20.363Z,50.69
2023-03-06T11:25:28.200Z,50.04
2023-03-06T11:28:33.925Z,50.62
2023-03-06T11:32:07.182Z,49.02
2023-03-06T11:35:13.904Z,49.93
2023-03-06T11:38:32.324Z,51.76
2023-03-06T11:41:54.355Z,48.69
2023-03-06T11:45:16.071Z,50.10
2023-03-06T11:48:23.809Z,51.49
2023-03-06T11:51:34.756Z,47.66
2023-03-06T11:54:37.434Z,49.47
2023-03-06T11:58:01.314Z,48.99
2023-03-06T12:01:13.755Z,49.77
2023-03-06T12:04:41.527Z,49.31
2023-03-06T12:07:53.150Z,49.05
2023-03-06T12:11:10.625Z,47.62
2023-03-06T12:14:20.445Z,48.48
2023-03-06T12:17:43.014Z,48.08
2023-03-06T12:21:00.904Z,49.08
2023-03-06T12:24:21.633Z,46.81
2023-03-06T12:27:54.219Z,47.45
2023-03-06T12:31:16.006Z,45.69
2023-03-06T12:34:26.691Z,46.27
2023-03-06T12:38:09.471Z,45.99
2023-03-06T12:41:32.143Z,47.99
2023-03-06T12:45:12.016Z,48.66
2023-03-06T12:48:25.923Z,49.77
2023-03-06T12:51:29.256Z,50.47
2023-03-06T12:54:36.297Z,51.80
2023-03-06T12:57:38.872Z,52.70
2023-03-06T13:01:05.007Z,52.87
2023-03-06T13:04:13.416Z,54.36
2023-03-06T13:07:34.019Z,53.80
2023-03-06T13:10:39.670Z,55.18
2023-03-06T13:13:44.217Z,55.52
2023-03-06T13:16:47.036Z,54.57
2023-03-06T13:19:58.495Z,54.80
2023-03-06T13:23:32.125Z,57.56
2023-03-06T13:26:34.932Z,56.13
2023-03-06T13:29:37.548Z,55.73
2023-03-06T13:32:40.335Z,56.96
2023-03-06T13:35:42.906Z,56.51
2023-03-06T13:38:45.492Z,57.25
2023-03-06T13:42:00.220Z,57.96
2023-03-06T13:45:25.727Z,57.03
2023-03-06T13:48:45.168Z,56.45
2023-03-06T13:51:54.277Z,57.15
2023-03-06T13:55:18.075Z,57.32
2023-03-06T13:58:26.652Z,57.63
2023-03-06T14:01:53.957Z,57.72
2023-03-06T14:05:03.570Z,57.56
2023-03-06T14:08:15.374Z,58.67
2023-03-06T14:11:21.543Z,59.13
2023-03-06T14:14:32.140Z,58.70
2023-03-06T14:17:38.187Z,59.44
2023-03-06T14:20:43.809Z,58.91
2023-03-06T14:23:47.322Z,60.64
2023-03-06T14:26:51.951Z,60.68
2023-03-06T14:30:09.288Z,61.20
2023-03-06T14:33:12.278Z,61.73
2023-03-06T14:36:18.004Z,61.03
2023-03-06T14:39:21.371Z,61.03
2023-03-06T14:42:28.878Z,61.70
2023-03-06T14:45:31.409Z,61.88
2023-03-06T14:48:44.547Z,62.40
2023-03-06T14:51:53.172Z,62.22
2023-03-06T14:54:55.781Z,61.70
2023-03-06T14:57:59.844Z,61.55
2023-03-06T15:01:06.244Z,61.58
2023-03-06T15:04:31.957Z,61.59
2023-03-06T15:07:35.411Z,61.80
2023-03-06T15:10:38.930Z,62.86
2023-03-06T15:13:41.555Z,62.25
2023-03-06T15:16:44.188Z,62.97
2023-03-06T15:19:48.778Z,62.71
2023-03-06T15:22:51.476Z,62.85
2023-03-06T15:25:55.631Z,62.61
2023-03-06T15:29:09.617Z,62.56
2023-03-06T15:32:29.589Z,62.73
2023-03-06T15:35:37.876Z,63.44
2023-03-06T15:38:43.379Z,63.45
2023-03-06T15:41:45.954Z,63.02
2023-03-06T15:44:53.118Z,63.02
2023-03-06T15:47:56.067Z,63.11
2023-03-06T15:50:58.692Z,63.01
2023-03-06T15:54:11.891Z,62.23
2023-03-06T15:57:25.302Z,62.60
2023-03-06T16:00:38.617Z,61.69
2023-03-06T16:03:41.174Z,61.29
2023-03-06T16:06:47.017Z,61.60
2023-03-06T16:09:49.626Z,62.18
2023-03-06T16:12:57.577Z,61.90
2023-03-06T16:16:00.214Z,62.31
2023-03-06T16:19:06.044Z,62.72
2023-03-06T16:22:10.554Z,63.42
2023-03-06T16:25:14.493Z,62.23
2023-03-06T16:28:17.671Z,62.31
2023-03-06T16:31:20.278Z,63.84
2023-03-06T16:34:23.428Z,63.97
2023-03-06T16:37:26.089Z,64.90
2023-03-06T16:40:37.733Z,65.72
2023-03-06T16:43:40.518Z,66.17
2023-03-06T16:46:46.026Z,66.09
2023-03-06T16:49:49.042Z,65.99
2023-03-06T16:52:53.032Z,66.17
2023-03-06T16:55:55.667Z,66.78
2023-03-06T16:58:58.433Z,66.98
2023-03-06T17:02:01.080Z,66.44
2023-03-06T17:05:04.709Z,66.26
2023-03-06T17:08:07.284Z,65.83
2023-03-06T17:11:09.847Z,67.13
2023-03-06T17:14:12.960Z,67.04
2023-03-06T17:17:17.238Z,67.71
2023-03-06T17:20:20.669Z,67.36
2023-03-06T17:23:28.816Z,67.68
2023-03-06T17:26:31.478Z,68.20
2023-03-06T17:29:34.193Z,68.33
2023-03-06T17:32:38.399Z,68.86
2023-03-06T17:35:41.032Z,69.38
2023-03-06T17:38:43.909Z,69.38
2023-03-06T17:41:46.611Z,70.07
2023-03-06T17:44:49.337Z,70.53
2023-03-06T17:47:55.920Z,69.88
2023-03-06T17:50:58.987Z,70.15
2023-03-06T17:54:01.921Z,70.02
2023-03-06T17:57:05.833Z,69.91
2023-03-06T18:00:09.582Z,70.28
2023-03-06T18:03:15.084Z,70.93
2023-03-06T18:06:18.799Z,70.88
2023-03-06T18:09:21.395Z,71.59
2023-03-06T18:12:24.181Z,71.45
2023-03-06T18:15:26.876Z,72.16
2023-03-06T18:18:30.236Z,72.48
2023-03-06T18:21:32.870Z,73.02
2023-03-06T18:24:36.597Z,74.02
2023-03-06T18:27:39.374Z,74.10
2023-03-06T18:30:42.521Z,74.39
2023-03-06T18:33:47.752Z,75.48
2023-03-06T18:36:52.507Z,75.76
2023-03-06T18:39:55.371Z,76.50
2023-03-06T18:42:58.588Z,76.57
2023-03-06T18:46:01.665Z,76.12
2023-03-06T18:49:05.604Z,76.11
2023-03-06T18:52:08.435Z,76.98
2023-03-06T18:55:11.368Z,76.04
2023-03-06T18:58:14.237Z,76.96
2023-03-06T19:01:17.478Z,77.12
2023-03-06T19:04:20.308Z,76.92
2023-03-06T19:07:23.918Z,76.50
2023-03-06T19:10:27.675Z,76.37
2023-03-06T19:13:31.108Z,77.54
2023-03-06T19:16:33.859Z,78.23
2023-03-06T19:19:36.670Z,78.36
2023-03-06T19:22:39.242Z,78.24
2023-03-06T19:25:41.835Z,79.05
2023-03-06T19:28:44.797Z,78.92
2023-03-06T19:31:47.655Z,78.12
2023-03-06T19:34:50.302Z,78.78
2023-03-06T19:37:53.581Z,77.90
2023-03-06T19:40:57.433Z,78.34
2023-03-06T19:44:02.698Z,78.85
2023-03-06T19:47:05.465Z,78.54
2023-03-06T19:50:09.020Z,79.07
2023-03-06T19:53:11.695Z,79.22
2023-03-06T19:56:23.615Z,79.09
2023-03-06T19:59:26.377Z,79.16
2023-03-06T20:02:29.253Z,78.89
2023-03-06T20:05:31.872Z,79.65
2023-03-06T20:08:35.388Z,78.91
2023-03-06T20:11:38.796Z,79.02
2023-03-06T20:14:41.821Z,80.80
2023-03-06T20:17:44.605Z,80.72
2023-03-06T20:21:01.299Z,80.36
2023-03-06T20:24:05.724Z,82.07
2023-03-06T20:27:08.543Z,82.58
2023-03-06T20:30:11.785Z,77.71
2023-03-06T20:33:15.482Z,84.63
2023-03-06T20:36:27.607Z,84.08
2023-03-06T20:39:30.480Z,86.65
2023-03-06T20:42:34.243Z,88.13
2023-03-06T20:45:37.093Z,89.28
2023-03-06T20:48:41.091Z,90.14
2023-03-06T20:51:44.333Z,89.61
2023-03-06T20:54:47.095Z,91.43
2023-03-06T20:57:50.981Z,91.87
2023-03-06T21:00:53.739Z,92.38
2023-03-06T21:03:57.701Z,92.38
2023-03-06T21:07:00.914Z,93.10
2023-03-06T21:10:03.767Z,93.92
2023-03-06T21:13:06.465Z,94.03
2023-03-06T21:16:14.879Z,94.80
2023-03-06T21:19:17.833Z,95.91
2023-03-06T21:22:20.358Z,96.40
2023-03-06T21:25:23.246Z,96.29
2023-03-06T21:28:26.007Z,97.08
2023-03-06T21:31:29.297Z,96.63
2023-03-06T21:34:31.891Z,97.32
2023-03-06T21:37:34.498Z,97.69
2023-03-06T21:40:37.119Z,97.87
2023-03-06T21:43:40.189Z,97.60
2023-03-06T21:46:42.769Z,97.76
2023-03-06T21:49:45.390Z,97.75
2023-03-06T21:52:48.001Z,98.09
2023-03-06T21:55:50.579Z,97.51
2023-03-06T21:58:53.411Z,97.72
2023-03-06T22:01:55.983Z,97.03
2023-03-06T22:04:58.597Z,96.87
2023-03-06T22:08:01.390Z,97.54
2023-03-06T22:11:12.813Z,97.86
2023-03-06T22:14:15.515Z,98.07
2023-03-06T22:17:18.362Z,97.87
2023-03-06T22:20:20.950Z,98.05
2023-03-06T22:23:23.730Z,97.65
2023-03-06T22:26:28.143Z,97.49
2023-03-06T22:29:30.652Z,97.52
2023-03-06T22:32:33.416Z,97.04
2023-03-06T22:35:36.132Z,96.66
2023-03-06T22:38:41.751Z,97.17
2023-03-06T22:41:44.378Z,97.43
2023-03-06T22:44:46.920Z,98.33
2023-03-06T22:47:50.799Z,97.81
2023-03-06T22:50:54.411Z,98.63
2023-03-06T22:53:57.088Z,98.42
2023-03-06T22:56:59.646Z,98.72
2023-03-06T23:00:02.280Z,98.94
2023-03-06T23:03:04.893Z,99.38
2023-03-06T23:06:11.970Z,98.81
2023-03-06T23:09:21.653Z,99.04
2023-03-06T23:12:44.188Z,99.42
2023-03-06T23:16:06.960Z,99.95
2023-03-06T23:19:28.142Z,99.45
2023-03-06T23:22:49.448Z,99.31
2023-03-06T23:26:15.987Z,99.21
2023-03-06T23:29:18.603Z,99.33
2023-03-06T23:32:21.469Z,99.73
2023-03-06T23:35:24.170Z,99.35
2023-03-06T23:38:27.311Z,100.00
2023-03-06T23:41:30.155Z,99.86
2023-03-06T23:44:34.983Z,99.80
2023-03-06T23:47:37.640Z,99.70
2023-03-06T23:50:40.513Z,99.88
2023-03-06T23:53:44.374Z,99.63
2023-03-06T23:56:46.864Z,99.87
2023-03-06T23:59:49.456Z,100.00
